sensor_id;sensor_type;location;lat;lon;timestamp;temperature;humidity
71155;DHT22;59375;53.216;5.728;2022-10-31T00:01:44;12.60;99.90
71155;DHT22;59375;53.216;5.728;2022-10-31T00:04:09;12.50;99.90
71155;DHT22;59375;53.216;5.728;2022-10-31T00:06:35;12.50;99.90
71155;DHT22;59375;53.216;5.728;2022-10-31T00:09:01;12.50;99.90
71155;DHT22;59375;53.216;5.728;2022-10-31T00:11:27;12.50;99.90
71155;DHT22;59375;53.216;5.728;2022-10-31T00:13:52;12.50;99.90
71155;DHT22;59375;53.216;5.728;2022-10-31T00:16:19;12.50;99.90
71155;DHT22;59375;53.216;5.728;2022-10-31T00:18:47;12.50;99.90
71155;DHT22;59375;53.216;5.728;2022-10-31T00:21:13;12.40;99.90
71155;DHT22;59375;53.216;5.728;2022-10-31T00:23:39;12.40;99.90
71155;DHT22;59375;53.216;5.728;2022-10-31T00:26:05;12.40;99.90
71155;DHT22;59375;53.216;5.728;2022-10-31T00:28:32;12.40;99.90
71155;DHT22;59375;53.216;5.728;2022-10-31T00:30:58;12.30;99.90
71155;DHT22;59375;53.216;5.728;2022-10-31T00:33:23;12.30;99.90
71155;DHT22;59375;53.216;5.728;2022-10-31T00:35:49;12.30;99.90
71155;DHT22;59375;53.216;5.728;2022-10-31T00:38:15;12.40;99.90
71155;DHT22;59375;53.216;5.728;2022-10-31T00:40:41;12.40;99.90
71155;DHT22;59375;53.216;5.728;2022-10-31T00:43:06;12.40;99.90
71155;DHT22;59375;53.216;5.728;2022-10-31T00:45:31;12.40;99.90
71155;DHT22;59375;53.216;5.728;2022-10-31T00:47:57;12.30;99.90
71155;DHT22;59375;53.216;5.728;2022-10-31T00:50:22;12.30;99.90
71155;DHT22;59375;53.216;5.728;2022-10-31T00:52:48;12.30;99.90
71155;DHT22;59375;53.216;5.728;2022-10-31T00:55:13;12.30;99.90
71155;DHT22;59375;53.216;5.728;2022-10-31T00:57:39;12.30;99.90
71155;DHT22;59375;53.216;5.728;2022-10-31T01:00:04;12.30;99.90
71155;DHT22;59375;53.216;5.728;2022-10-31T01:02:30;12.30;99.90
71155;DHT22;59375;53.216;5.728;2022-10-31T01:04:55;12.30;99.90
71155;DHT22;59375;53.216;5.728;2022-10-31T01:07:21;12.30;99.90
71155;DHT22;59375;53.216;5.728;2022-10-31T01:09:47;12.30;99.90
71155;DHT22;59375;53.216;5.728;2022-10-31T01:12:12;12.30;99.90
71155;DHT22;59375;53.216;5.728;2022-10-31T01:14:38;12.30;99.90
71155;DHT22;59375;53.216;5.728;2022-10-31T01:17:03;12.30;99.90
71155;DHT22;59375;53.216;5.728;2022-10-31T01:19:28;12.30;99.90
71155;DHT22;59375;53.216;5.728;2022-10-31T01:21:54;12.30;99.90
71155;DHT22;59375;53.216;5.728;2022-10-31T01:24:20;12.30;99.90
71155;DHT22;59375;53.216;5.728;2022-10-31T01:26:46;12.30;99.90
71155;DHT22;59375;53.216;5.728;2022-10-31T01:29:11;12.30;99.90
71155;DHT22;59375;53.216;5.728;2022-10-31T01:31:37;12.30;99.90
71155;DHT22;59375;53.216;5.728;2022-10-31T01:34:03;12.20;99.90
71155;DHT22;59375;53.216;5.728;2022-10-31T01:36:32;12.20;99.90
71155;DHT22;59375;53.216;5.728;2022-10-31T01:38:59;12.20;99.90
71155;DHT22;59375;53.216;5.728;2022-10-31T01:41:30;12.20;99.90
71155;DHT22;59375;53.216;5.728;2022-10-31T01:43:57;12.20;99.90
71155;DHT22;59375;53.216;5.728;2022-10-31T01:46:36;12.20;99.90
71155;DHT22;59375;53.216;5.728;2022-10-31T01:49:09;12.20;99.90
71155;DHT22;59375;53.216;5.728;2022-10-31T01:51:37;12.20;99.90
71155;DHT22;59375;53.216;5.728;2022-10-31T01:54:04;12.20;99.90
71155;DHT22;59375;53.216;5.728;2022-10-31T01:56:31;12.10;99.90
71155;DHT22;59375;53.216;5.728;2022-10-31T01:58:58;12.20;99.90
71155;DHT22;59375;53.216;5.728;2022-10-31T02:01:24;12.10;99.90
71155;DHT22;59375;53.216;5.728;2022-10-31T02:03:50;12.10;99.90
71155;DHT22;59375;53.216;5.728;2022-10-31T02:06:19;12.10;99.90
71155;DHT22;59375;53.216;5.728;2022-10-31T02:08:46;12.10;99.90
71155;DHT22;59375;53.216;5.728;2022-10-31T02:11:12;12.00;99.90
71155;DHT22;59375;53.216;5.728;2022-10-31T02:13:38;12.00;99.90
71155;DHT22;59375;53.216;5.728;2022-10-31T02:16:03;12.00;99.90
71155;DHT22;59375;53.216;5.728;2022-10-31T02:18:29;12.00;99.90
71155;DHT22;59375;53.216;5.728;2022-10-31T02:21:07;12.00;99.90
71155;DHT22;59375;53.216;5.728;2022-10-31T02:26:21;12.00;99.90
71155;DHT22;59375;53.216;5.728;2022-10-31T02:29:13;12.00;99.90
71155;DHT22;59375;53.216;5.728;2022-10-31T02:31:53;12.00;99.90
71155;DHT22;59375;53.216;5.728;2022-10-31T02:34:34;12.00;99.90
71155;DHT22;59375;53.216;5.728;2022-10-31T02:37:17;12.00;99.90
71155;DHT22;59375;53.216;5.728;2022-10-31T02:45:33;11.90;99.90
71155;DHT22;59375;53.216;5.728;2022-10-31T02:48:02;11.90;99.90
71155;DHT22;59375;53.216;5.728;2022-10-31T02:50:30;11.90;99.90
71155;DHT22;59375;53.216;5.728;2022-10-31T02:52:56;11.80;99.90
71155;DHT22;59375;53.216;5.728;2022-10-31T02:57:50;11.80;99.90
71155;DHT22;59375;53.216;5.728;2022-10-31T03:00:17;11.80;99.90
71155;DHT22;59375;53.216;5.728;2022-10-31T03:07:57;11.70;99.90
71155;DHT22;59375;53.216;5.728;2022-10-31T03:12:59;11.70;99.90
71155;DHT22;59375;53.216;5.728;2022-10-31T03:15:30;11.60;99.90
71155;DHT22;59375;53.216;5.728;2022-10-31T03:18:02;11.60;99.90
71155;DHT22;59375;53.216;5.728;2022-10-31T03:20:52;11.60;99.90
71155;DHT22;59375;53.216;5.728;2022-10-31T03:23:16;11.60;99.90
71155;DHT22;59375;53.216;5.728;2022-10-31T03:25:42;11.60;99.90
71155;DHT22;59375;53.216;5.728;2022-10-31T03:28:08;11.60;99.90
71155;DHT22;59375;53.216;5.728;2022-10-31T03:30:35;11.60;99.90
71155;DHT22;59375;53.216;5.728;2022-10-31T03:33:02;11.60;99.90
71155;DHT22;59375;53.216;5.728;2022-10-31T03:35:29;11.60;99.90
71155;DHT22;59375;53.216;5.728;2022-10-31T03:37:55;11.60;99.90
71155;DHT22;59375;53.216;5.728;2022-10-31T03:40:22;11.60;99.90
71155;DHT22;59375;53.216;5.728;2022-10-31T03:42:51;11.60;99.90
71155;DHT22;59375;53.216;5.728;2022-10-31T03:45:40;11.60;99.90
71155;DHT22;59375;53.216;5.728;2022-10-31T03:48:06;11.60;99.90
71155;DHT22;59375;53.216;5.728;2022-10-31T03:53:38;11.50;99.90
71155;DHT22;59375;53.216;5.728;2022-10-31T03:56:02;11.50;99.90
71155;DHT22;59375;53.216;5.728;2022-10-31T03:58:37;11.50;99.90
71155;DHT22;59375;53.216;5.728;2022-10-31T04:01:05;11.50;99.90
71155;DHT22;59375;53.216;5.728;2022-10-31T04:03:32;11.50;99.90
71155;DHT22;59375;53.216;5.728;2022-10-31T04:06:00;11.50;99.90
71155;DHT22;59375;53.216;5.728;2022-10-31T04:08:28;11.50;99.90
71155;DHT22;59375;53.216;5.728;2022-10-31T04:10:54;11.50;99.90
71155;DHT22;59375;53.216;5.728;2022-10-31T04:13:23;11.50;99.90
71155;DHT22;59375;53.216;5.728;2022-10-31T04:15:50;11.50;99.90
71155;DHT22;59375;53.216;5.728;2022-10-31T04:18:17;11.50;99.90
71155;DHT22;59375;53.216;5.728;2022-10-31T04:20:42;11.50;99.90
71155;DHT22;59375;53.216;5.728;2022-10-31T04:23:13;11.50;99.90
71155;DHT22;59375;53.216;5.728;2022-10-31T04:25:42;11.40;99.90
71155;DHT22;59375;53.216;5.728;2022-10-31T04:28:07;11.40;99.90
71155;DHT22;59375;53.216;5.728;2022-10-31T04:30:32;11.40;99.90
71155;DHT22;59375;53.216;5.728;2022-10-31T04:32:58;11.40;99.90
71155;DHT22;59375;53.216;5.728;2022-10-31T04:35:23;11.40;99.90
71155;DHT22;59375;53.216;5.728;2022-10-31T04:37:49;11.40;99.90
71155;DHT22;59375;53.216;5.728;2022-10-31T04:40:14;11.40;99.90
71155;DHT22;59375;53.216;5.728;2022-10-31T04:42:40;11.40;99.90
71155;DHT22;59375;53.216;5.728;2022-10-31T04:45:05;11.30;99.90
71155;DHT22;59375;53.216;5.728;2022-10-31T04:47:33;11.30;99.90
71155;DHT22;59375;53.216;5.728;2022-10-31T04:49:59;11.30;99.90
71155;DHT22;59375;53.216;5.728;2022-10-31T04:52:25;11.30;99.90
71155;DHT22;59375;53.216;5.728;2022-10-31T04:54:51;11.20;99.90
71155;DHT22;59375;53.216;5.728;2022-10-31T04:57:17;11.20;99.90
71155;DHT22;59375;53.216;5.728;2022-10-31T04:59:42;11.20;99.90
71155;DHT22;59375;53.216;5.728;2022-10-31T05:02:07;11.20;99.90
71155;DHT22;59375;53.216;5.728;2022-10-31T05:04:33;11.20;99.90
71155;DHT22;59375;53.216;5.728;2022-10-31T05:06:58;11.10;99.90
71155;DHT22;59375;53.216;5.728;2022-10-31T05:09:24;11.00;99.90
71155;DHT22;59375;53.216;5.728;2022-10-31T05:11:49;11.00;99.90
71155;DHT22;59375;53.216;5.728;2022-10-31T05:14:14;10.90;99.90
71155;DHT22;59375;53.216;5.728;2022-10-31T05:16:40;10.90;99.90
71155;DHT22;59375;53.216;5.728;2022-10-31T05:19:05;10.90;99.90
71155;DHT22;59375;53.216;5.728;2022-10-31T05:21:31;10.90;99.90
71155;DHT22;59375;53.216;5.728;2022-10-31T05:23:56;10.80;99.90
71155;DHT22;59375;53.216;5.728;2022-10-31T05:26:21;10.90;99.90
71155;DHT22;59375;53.216;5.728;2022-10-31T05:28:47;10.80;99.90
71155;DHT22;59375;53.216;5.728;2022-10-31T05:31:12;10.90;99.90
71155;DHT22;59375;53.216;5.728;2022-10-31T05:33:38;10.90;99.90
71155;DHT22;59375;53.216;5.728;2022-10-31T05:36:03;10.90;99.90
71155;DHT22;59375;53.216;5.728;2022-10-31T05:38:29;10.90;99.90
71155;DHT22;59375;53.216;5.728;2022-10-31T05:40:55;10.90;99.90
71155;DHT22;59375;53.216;5.728;2022-10-31T05:43:22;10.80;99.90
71155;DHT22;59375;53.216;5.728;2022-10-31T05:45:51;10.80;99.90
71155;DHT22;59375;53.216;5.728;2022-10-31T05:48:16;10.80;99.90
71155;DHT22;59375;53.216;5.728;2022-10-31T05:50:42;10.70;99.90
71155;DHT22;59375;53.216;5.728;2022-10-31T05:53:07;10.70;99.90
71155;DHT22;59375;53.216;5.728;2022-10-31T05:55:33;10.70;99.90
71155;DHT22;59375;53.216;5.728;2022-10-31T05:57:58;10.60;99.90
71155;DHT22;59375;53.216;5.728;2022-10-31T06:00:24;10.60;99.90
71155;DHT22;59375;53.216;5.728;2022-10-31T06:02:57;10.60;99.90
71155;DHT22;59375;53.216;5.728;2022-10-31T06:05:22;10.60;99.90
71155;DHT22;59375;53.216;5.728;2022-10-31T06:07:48;10.60;99.90
71155;DHT22;59375;53.216;5.728;2022-10-31T06:10:13;10.50;99.90
71155;DHT22;59375;53.216;5.728;2022-10-31T06:12:39;10.50;99.90
71155;DHT22;59375;53.216;5.728;2022-10-31T06:15:06;10.50;99.90
71155;DHT22;59375;53.216;5.728;2022-10-31T06:17:32;10.40;99.90
71155;DHT22;59375;53.216;5.728;2022-10-31T06:19:57;10.40;99.90
71155;DHT22;59375;53.216;5.728;2022-10-31T06:22:23;10.50;99.90
71155;DHT22;59375;53.216;5.728;2022-10-31T06:24:48;10.50;99.90
71155;DHT22;59375;53.216;5.728;2022-10-31T06:27:13;10.50;99.90
71155;DHT22;59375;53.216;5.728;2022-10-31T06:29:39;10.50;99.90
71155;DHT22;59375;53.216;5.728;2022-10-31T06:32:04;10.50;99.90
71155;DHT22;59375;53.216;5.728;2022-10-31T06:34:30;10.50;99.90
71155;DHT22;59375;53.216;5.728;2022-10-31T06:36:55;10.50;99.90
71155;DHT22;59375;53.216;5.728;2022-10-31T06:39:21;10.50;99.90
71155;DHT22;59375;53.216;5.728;2022-10-31T06:41:49;10.50;99.90
71155;DHT22;59375;53.216;5.728;2022-10-31T06:44:15;10.50;99.90
71155;DHT22;59375;53.216;5.728;2022-10-31T06:46:40;10.50;99.90
71155;DHT22;59375;53.216;5.728;2022-10-31T06:49:05;10.50;99.90
71155;DHT22;59375;53.216;5.728;2022-10-31T06:51:31;10.50;99.90
71155;DHT22;59375;53.216;5.728;2022-10-31T06:53:56;10.50;99.90
71155;DHT22;59375;53.216;5.728;2022-10-31T06:56:22;10.50;99.90
71155;DHT22;59375;53.216;5.728;2022-10-31T06:58:47;10.50;99.90
71155;DHT22;59375;53.216;5.728;2022-10-31T07:01:13;10.50;99.90
71155;DHT22;59375;53.216;5.728;2022-10-31T07:03:38;10.50;99.90
71155;DHT22;59375;53.216;5.728;2022-10-31T07:06:03;10.50;99.90
71155;DHT22;59375;53.216;5.728;2022-10-31T07:08:29;10.50;99.90
71155;DHT22;59375;53.216;5.728;2022-10-31T07:10:55;10.50;99.90
71155;DHT22;59375;53.216;5.728;2022-10-31T07:13:21;10.60;99.90
71155;DHT22;59375;53.216;5.728;2022-10-31T07:15:51;10.60;99.90
71155;DHT22;59375;53.216;5.728;2022-10-31T07:18:17;10.70;99.90
71155;DHT22;59375;53.216;5.728;2022-10-31T07:20:42;10.80;99.90
71155;DHT22;59375;53.216;5.728;2022-10-31T07:23:09;10.90;99.90
71155;DHT22;59375;53.216;5.728;2022-10-31T07:25:34;11.00;99.90
71155;DHT22;59375;53.216;5.728;2022-10-31T07:28:00;11.00;99.90
71155;DHT22;59375;53.216;5.728;2022-10-31T07:30:25;11.10;99.90
71155;DHT22;59375;53.216;5.728;2022-10-31T07:32:51;11.10;99.90
71155;DHT22;59375;53.216;5.728;2022-10-31T07:35:18;11.10;99.90
71155;DHT22;59375;53.216;5.728;2022-10-31T07:37:44;11.20;99.90
71155;DHT22;59375;53.216;5.728;2022-10-31T07:40:09;11.20;99.90
71155;DHT22;59375;53.216;5.728;2022-10-31T07:42:39;11.20;99.90
71155;DHT22;59375;53.216;5.728;2022-10-31T07:45:05;11.20;99.90
71155;DHT22;59375;53.216;5.728;2022-10-31T07:47:50;11.20;99.90
71155;DHT22;59375;53.216;5.728;2022-10-31T07:50:16;11.20;99.90
71155;DHT22;59375;53.216;5.728;2022-10-31T07:52:42;11.20;99.90
71155;DHT22;59375;53.216;5.728;2022-10-31T07:55:08;11.20;99.90
71155;DHT22;59375;53.216;5.728;2022-10-31T07:57:33;11.20;99.90
71155;DHT22;59375;53.216;5.728;2022-10-31T07:59:59;11.30;99.90
71155;DHT22;59375;53.216;5.728;2022-10-31T08:02:25;11.40;99.90
71155;DHT22;59375;53.216;5.728;2022-10-31T08:04:50;11.40;99.90
71155;DHT22;59375;53.216;5.728;2022-10-31T08:07:16;11.60;99.90
71155;DHT22;59375;53.216;5.728;2022-10-31T08:09:41;11.70;99.90
71155;DHT22;59375;53.216;5.728;2022-10-31T08:12:07;11.80;99.90
71155;DHT22;59375;53.216;5.728;2022-10-31T08:14:32;11.90;99.90
71155;DHT22;59375;53.216;5.728;2022-10-31T08:16:58;12.00;99.90
71155;DHT22;59375;53.216;5.728;2022-10-31T08:19:23;12.00;99.90
71155;DHT22;59375;53.216;5.728;2022-10-31T08:21:52;12.10;99.90
71155;DHT22;59375;53.216;5.728;2022-10-31T08:24:20;12.20;99.90
71155;DHT22;59375;53.216;5.728;2022-10-31T08:26:45;12.20;99.90
71155;DHT22;59375;53.216;5.728;2022-10-31T08:29:11;12.40;99.90
71155;DHT22;59375;53.216;5.728;2022-10-31T08:31:36;12.60;99.90
71155;DHT22;59375;53.216;5.728;2022-10-31T08:34:02;12.80;99.90
71155;DHT22;59375;53.216;5.728;2022-10-31T08:36:28;12.80;99.90
71155;DHT22;59375;53.216;5.728;2022-10-31T08:38:53;12.90;99.90
71155;DHT22;59375;53.216;5.728;2022-10-31T08:41:19;12.90;99.90
71155;DHT22;59375;53.216;5.728;2022-10-31T08:43:44;13.00;99.90
71155;DHT22;59375;53.216;5.728;2022-10-31T08:46:10;13.10;99.90
71155;DHT22;59375;53.216;5.728;2022-10-31T08:48:35;13.10;99.90
71155;DHT22;59375;53.216;5.728;2022-10-31T08:51:01;13.10;99.90
71155;DHT22;59375;53.216;5.728;2022-10-31T08:53:26;13.10;99.90
71155;DHT22;59375;53.216;5.728;2022-10-31T08:55:54;13.20;99.90
71155;DHT22;59375;53.216;5.728;2022-10-31T08:58:19;13.20;99.90
71155;DHT22;59375;53.216;5.728;2022-10-31T09:00:46;13.30;99.90
71155;DHT22;59375;53.216;5.728;2022-10-31T09:03:13;13.30;99.90
71155;DHT22;59375;53.216;5.728;2022-10-31T09:05:39;13.50;99.90
71155;DHT22;59375;53.216;5.728;2022-10-31T09:08:04;13.50;99.90
71155;DHT22;59375;53.216;5.728;2022-10-31T09:10:31;13.60;99.90
71155;DHT22;59375;53.216;5.728;2022-10-31T09:13:03;13.60;99.90
71155;DHT22;59375;53.216;5.728;2022-10-31T09:15:31;13.70;99.90
71155;DHT22;59375;53.216;5.728;2022-10-31T09:17:57;13.70;99.90
71155;DHT22;59375;53.216;5.728;2022-10-31T09:20:22;13.80;99.90
71155;DHT22;59375;53.216;5.728;2022-10-31T09:22:48;13.90;99.90
71155;DHT22;59375;53.216;5.728;2022-10-31T09:25:20;14.00;99.90
71155;DHT22;59375;53.216;5.728;2022-10-31T09:27:45;14.00;99.90
71155;DHT22;59375;53.216;5.728;2022-10-31T09:30:11;14.10;99.90
71155;DHT22;59375;53.216;5.728;2022-10-31T09:32:36;14.20;99.90
71155;DHT22;59375;53.216;5.728;2022-10-31T09:35:02;14.20;99.90
71155;DHT22;59375;53.216;5.728;2022-10-31T09:37:27;14.30;99.90
71155;DHT22;59375;53.216;5.728;2022-10-31T09:39:53;14.40;99.90
71155;DHT22;59375;53.216;5.728;2022-10-31T09:42:35;14.40;99.90
71155;DHT22;59375;53.216;5.728;2022-10-31T09:47:54;14.60;99.90
71155;DHT22;59375;53.216;5.728;2022-10-31T09:50:26;14.60;99.90
71155;DHT22;59375;53.216;5.728;2022-10-31T09:52:54;14.60;99.90
71155;DHT22;59375;53.216;5.728;2022-10-31T09:55:36;14.70;99.90
71155;DHT22;59375;53.216;5.728;2022-10-31T09:58:02;14.80;99.90
71155;DHT22;59375;53.216;5.728;2022-10-31T10:00:28;15.10;99.90
71155;DHT22;59375;53.216;5.728;2022-10-31T10:02:58;15.30;99.90
71155;DHT22;59375;53.216;5.728;2022-10-31T10:05:28;15.50;99.90
71155;DHT22;59375;53.216;5.728;2022-10-31T10:13:54;15.20;99.90
71155;DHT22;59375;53.216;5.728;2022-10-31T10:15:54;15.10;99.90
71155;DHT22;59375;53.216;5.728;2022-10-31T10:18:30;15.20;99.90
71155;DHT22;59375;53.216;5.728;2022-10-31T10:23:45;15.30;99.90
71155;DHT22;59375;53.216;5.728;2022-10-31T10:26:21;15.30;99.90
71155;DHT22;59375;53.216;5.728;2022-10-31T10:28:49;15.40;99.90
71155;DHT22;59375;53.216;5.728;2022-10-31T10:31:16;15.50;99.90
71155;DHT22;59375;53.216;5.728;2022-10-31T10:33:44;15.70;99.90
71155;DHT22;59375;53.216;5.728;2022-10-31T10:36:25;15.80;99.90
71155;DHT22;59375;53.216;5.728;2022-10-31T10:41:18;15.90;99.90
71155;DHT22;59375;53.216;5.728;2022-10-31T10:43:44;16.00;99.90
71155;DHT22;59375;53.216;5.728;2022-10-31T10:49:05;16.20;99.90
71155;DHT22;59375;53.216;5.728;2022-10-31T10:51:37;16.20;99.90
71155;DHT22;59375;53.216;5.728;2022-10-31T10:54:18;16.20;99.90
71155;DHT22;59375;53.216;5.728;2022-10-31T10:59:16;16.60;99.90
71155;DHT22;59375;53.216;5.728;2022-10-31T11:01:42;16.70;99.90
71155;DHT22;59375;53.216;5.728;2022-10-31T11:04:21;16.90;99.90
71155;DHT22;59375;53.216;5.728;2022-10-31T11:06:58;17.00;99.90
71155;DHT22;59375;53.216;5.728;2022-10-31T11:09:24;17.30;99.90
71155;DHT22;59375;53.216;5.728;2022-10-31T11:11:49;17.70;99.90
71155;DHT22;59375;53.216;5.728;2022-10-31T11:14:15;18.00;99.90
71155;DHT22;59375;53.216;5.728;2022-10-31T11:19:26;18.60;99.90
71155;DHT22;59375;53.216;5.728;2022-10-31T11:21:52;19.20;99.90
71155;DHT22;59375;53.216;5.728;2022-10-31T11:24:19;19.80;99.90
71155;DHT22;59375;53.216;5.728;2022-10-31T11:26:46;20.10;99.90
71155;DHT22;59375;53.216;5.728;2022-10-31T11:29:16;20.50;99.90
71155;DHT22;59375;53.216;5.728;2022-10-31T11:31:42;20.60;99.90
71155;DHT22;59375;53.216;5.728;2022-10-31T11:34:24;21.20;99.90
71155;DHT22;59375;53.216;5.728;2022-10-31T11:36:50;21.30;99.90
71155;DHT22;59375;53.216;5.728;2022-10-31T11:39:17;21.60;99.90
71155;DHT22;59375;53.216;5.728;2022-10-31T11:41:44;22.10;99.90
71155;DHT22;59375;53.216;5.728;2022-10-31T11:44:17;22.50;99.90
71155;DHT22;59375;53.216;5.728;2022-10-31T11:46:44;23.30;99.90
71155;DHT22;59375;53.216;5.728;2022-10-31T11:49:13;23.70;99.90
71155;DHT22;59375;53.216;5.728;2022-10-31T11:51:39;23.60;99.90
71155;DHT22;59375;53.216;5.728;2022-10-31T11:54:05;22.80;99.90
71155;DHT22;59375;53.216;5.728;2022-10-31T11:56:37;22.70;99.90
71155;DHT22;59375;53.216;5.728;2022-10-31T11:59:04;22.20;99.90
71155;DHT22;59375;53.216;5.728;2022-10-31T12:01:31;22.20;99.90
71155;DHT22;59375;53.216;5.728;2022-10-31T12:03:59;22.70;99.90
71155;DHT22;59375;53.216;5.728;2022-10-31T12:06:32;22.40;99.90
71155;DHT22;59375;53.216;5.728;2022-10-31T12:08:59;22.10;99.90
71155;DHT22;59375;53.216;5.728;2022-10-31T12:19:36;21.00;99.90
71155;DHT22;59375;53.216;5.728;2022-10-31T12:24:29;21.20;99.90
71155;DHT22;59375;53.216;5.728;2022-10-31T12:30:29;21.30;99.90
71155;DHT22;59375;53.216;5.728;2022-10-31T12:37:42;20.80;99.90
71155;DHT22;59375;53.216;5.728;2022-10-31T12:40:32;20.00;99.90
71155;DHT22;59375;53.216;5.728;2022-10-31T12:45:55;19.40;99.90
71155;DHT22;59375;53.216;5.728;2022-10-31T12:53:19;19.30;99.90
71155;DHT22;59375;53.216;5.728;2022-10-31T12:58:36;19.80;99.90
71155;DHT22;59375;53.216;5.728;2022-10-31T13:01:06;19.50;99.90
71155;DHT22;59375;53.216;5.728;2022-10-31T13:03:38;19.30;99.90
71155;DHT22;59375;53.216;5.728;2022-10-31T13:06:09;18.90;99.90
71155;DHT22;59375;53.216;5.728;2022-10-31T13:08:38;18.60;99.90
71155;DHT22;59375;53.216;5.728;2022-10-31T13:11:10;18.70;99.90
71155;DHT22;59375;53.216;5.728;2022-10-31T13:18:34;20.60;99.90
71155;DHT22;59375;53.216;5.728;2022-10-31T13:21:03;21.40;99.90
71155;DHT22;59375;53.216;5.728;2022-10-31T13:23:30;21.90;99.90
71155;DHT22;59375;53.216;5.728;2022-10-31T13:25:56;21.90;99.90
71155;DHT22;59375;53.216;5.728;2022-10-31T13:28:27;21.70;99.90
71155;DHT22;59375;53.216;5.728;2022-10-31T13:30:54;21.70;99.90
71155;DHT22;59375;53.216;5.728;2022-10-31T13:33:21;21.50;99.90
71155;DHT22;59375;53.216;5.728;2022-10-31T13:35:54;21.70;99.90
71155;DHT22;59375;53.216;5.728;2022-10-31T13:41:05;21.80;99.90
71155;DHT22;59375;53.216;5.728;2022-10-31T13:45:59;20.90;99.90
71155;DHT22;59375;53.216;5.728;2022-10-31T13:50:58;20.40;99.90
71155;DHT22;59375;53.216;5.728;2022-10-31T13:56:13;20.80;99.90
71155;DHT22;59375;53.216;5.728;2022-10-31T13:58:40;20.80;99.90
71155;DHT22;59375;53.216;5.728;2022-10-31T14:03:35;19.20;99.90
71155;DHT22;59375;53.216;5.728;2022-10-31T14:06:02;19.20;99.90
71155;DHT22;59375;53.216;5.728;2022-10-31T14:08:27;19.40;99.90
71155;DHT22;59375;53.216;5.728;2022-10-31T14:10:54;19.40;99.90
71155;DHT22;59375;53.216;5.728;2022-10-31T14:13:29;18.70;99.90
71155;DHT22;59375;53.216;5.728;2022-10-31T14:16:00;18.40;99.90
71155;DHT22;59375;53.216;5.728;2022-10-31T14:18:36;18.10;99.90
71155;DHT22;59375;53.216;5.728;2022-10-31T14:21:16;17.80;99.90
71155;DHT22;59375;53.216;5.728;2022-10-31T14:23:51;17.60;99.90
71155;DHT22;59375;53.216;5.728;2022-10-31T14:28:46;17.30;99.90
71155;DHT22;59375;53.216;5.728;2022-10-31T14:33:49;16.90;99.90
71155;DHT22;59375;53.216;5.728;2022-10-31T14:36:17;16.70;99.90
71155;DHT22;59375;53.216;5.728;2022-10-31T14:41:15;16.40;99.90
71155;DHT22;59375;53.216;5.728;2022-10-31T14:43:58;16.30;99.90
71155;DHT22;59375;53.216;5.728;2022-10-31T14:46:40;16.20;99.90
71155;DHT22;59375;53.216;5.728;2022-10-31T14:51:40;15.80;99.90
71155;DHT22;59375;53.216;5.728;2022-10-31T14:54:07;15.70;99.90
71155;DHT22;59375;53.216;5.728;2022-10-31T14:56:37;15.60;99.90
71155;DHT22;59375;53.216;5.728;2022-10-31T14:59:07;15.50;99.90
71155;DHT22;59375;53.216;5.728;2022-10-31T15:01:34;15.40;99.90
71155;DHT22;59375;53.216;5.728;2022-10-31T15:07:11;15.30;99.90
71155;DHT22;59375;53.216;5.728;2022-10-31T15:09:40;15.30;99.90
71155;DHT22;59375;53.216;5.728;2022-10-31T15:14:49;15.20;99.90
71155;DHT22;59375;53.216;5.728;2022-10-31T15:17:15;15.20;99.90
71155;DHT22;59375;53.216;5.728;2022-10-31T15:19:40;15.10;99.90
71155;DHT22;59375;53.216;5.728;2022-10-31T15:22:08;15.10;99.90
71155;DHT22;59375;53.216;5.728;2022-10-31T15:24:36;15.00;99.90
71155;DHT22;59375;53.216;5.728;2022-10-31T15:27:02;15.00;99.90
71155;DHT22;59375;53.216;5.728;2022-10-31T15:29:28;15.00;99.90
71155;DHT22;59375;53.216;5.728;2022-10-31T15:32:08;14.90;99.90
71155;DHT22;59375;53.216;5.728;2022-10-31T15:34:39;14.90;99.90
71155;DHT22;59375;53.216;5.728;2022-10-31T15:37:07;14.90;99.90
71155;DHT22;59375;53.216;5.728;2022-10-31T15:39:34;14.90;99.90
71155;DHT22;59375;53.216;5.728;2022-10-31T15:41:59;14.80;99.90
71155;DHT22;59375;53.216;5.728;2022-10-31T15:44:26;14.80;99.90
71155;DHT22;59375;53.216;5.728;2022-10-31T15:47:03;14.70;99.90
71155;DHT22;59375;53.216;5.728;2022-10-31T15:49:41;14.70;99.90
71155;DHT22;59375;53.216;5.728;2022-10-31T15:52:29;14.70;99.90
71155;DHT22;59375;53.216;5.728;2022-10-31T15:54:54;14.60;99.90
71155;DHT22;59375;53.216;5.728;2022-10-31T15:57:21;14.60;99.90
71155;DHT22;59375;53.216;5.728;2022-10-31T15:59:48;14.60;99.90
71155;DHT22;59375;53.216;5.728;2022-10-31T16:02:14;14.50;99.90
71155;DHT22;59375;53.216;5.728;2022-10-31T16:04:54;14.50;99.90
71155;DHT22;59375;53.216;5.728;2022-10-31T16:07:19;14.50;99.90
71155;DHT22;59375;53.216;5.728;2022-10-31T16:10:46;14.50;99.90
71155;DHT22;59375;53.216;5.728;2022-10-31T16:12:44;14.50;99.90
71155;DHT22;59375;53.216;5.728;2022-10-31T16:15:13;14.40;99.90
71155;DHT22;59375;53.216;5.728;2022-10-31T16:17:40;14.40;99.90
71155;DHT22;59375;53.216;5.728;2022-10-31T16:20:06;14.50;99.90
71155;DHT22;59375;53.216;5.728;2022-10-31T16:22:35;14.40;99.90
71155;DHT22;59375;53.216;5.728;2022-10-31T16:25:03;14.40;99.90
71155;DHT22;59375;53.216;5.728;2022-10-31T16:27:32;14.40;99.90
71155;DHT22;59375;53.216;5.728;2022-10-31T16:29:59;14.40;99.90
71155;DHT22;59375;53.216;5.728;2022-10-31T16:32:33;14.40;99.90
71155;DHT22;59375;53.216;5.728;2022-10-31T16:37:33;14.30;99.90
71155;DHT22;59375;53.216;5.728;2022-10-31T16:39:59;14.30;99.90
71155;DHT22;59375;53.216;5.728;2022-10-31T16:42:24;14.30;99.90
71155;DHT22;59375;53.216;5.728;2022-10-31T16:44:50;14.30;99.90
71155;DHT22;59375;53.216;5.728;2022-10-31T16:47:16;14.30;99.90
71155;DHT22;59375;53.216;5.728;2022-10-31T16:49:42;14.30;99.90
71155;DHT22;59375;53.216;5.728;2022-10-31T16:52:08;14.30;99.90
71155;DHT22;59375;53.216;5.728;2022-10-31T16:54:33;14.30;99.90
71155;DHT22;59375;53.216;5.728;2022-10-31T16:56:59;14.30;99.90
71155;DHT22;59375;53.216;5.728;2022-10-31T16:59:25;14.20;99.90
71155;DHT22;59375;53.216;5.728;2022-10-31T17:01:51;14.30;99.90
71155;DHT22;59375;53.216;5.728;2022-10-31T17:04:16;14.30;99.90
71155;DHT22;59375;53.216;5.728;2022-10-31T17:06:42;14.20;99.90
71155;DHT22;59375;53.216;5.728;2022-10-31T17:09:07;14.20;99.90
71155;DHT22;59375;53.216;5.728;2022-10-31T17:11:33;14.30;99.90
71155;DHT22;59375;53.216;5.728;2022-10-31T17:13:59;14.20;99.90
71155;DHT22;59375;53.216;5.728;2022-10-31T17:16:25;14.20;99.90
71155;DHT22;59375;53.216;5.728;2022-10-31T17:18:50;14.20;99.90
71155;DHT22;59375;53.216;5.728;2022-10-31T17:21:17;14.20;99.90
71155;DHT22;59375;53.216;5.728;2022-10-31T17:23:43;14.20;99.90